sensor_id;sensor_type;location;lat;lon;timestamp;pressure;altitude;pressure_sealevel;temperature;humidity
44872;BME280;30602;51.060;17.226;2023-07-22T00:02:57;101023.75;;;17.42;100.00
44872;BME280;30602;51.060;17.226;2023-07-22T00:06:25;101018.34;;;17.49;98.78
44872;BME280;30602;51.060;17.226;2023-07-22T00:11:03;101014.35;;;17.40;97.39
44872;BME280;30602;51.060;17.226;2023-07-22T00:15:17;101029.56;;;17.41;96.71
44872;BME280;30602;51.060;17.226;2023-07-22T00:18:53;101035.80;;;17.28;96.28
44872;BME280;30602;51.060;17.226;2023-07-22T00:22:51;101034.53;;;17.08;96.80
44872;BME280;30602;51.060;17.226;2023-07-22T00:27:13;101021.13;;;16.90;98.08
44872;BME280;30602;51.060;17.226;2023-07-22T00:31:25;101022.08;;;16.87;97.66
44872;BME280;30602;51.060;17.226;2023-07-22T00:36:07;101021.85;;;16.85;97.62
44872;BME280;30602;51.060;17.226;2023-07-22T00:40:03;101052.13;;;16.87;98.17
44872;BME280;30602;51.060;17.226;2023-07-22T00:44:27;101057.79;;;16.73;98.34
44872;BME280;30602;51.060;17.226;2023-07-22T00:48:45;101053.31;;;16.86;97.28
44872;BME280;30602;51.060;17.226;2023-07-22T00:52:30;101054.23;;;16.85;96.85
44872;BME280;30602;51.060;17.226;2023-07-22T00:56:25;101049.35;;;16.79;98.29
44872;BME280;30602;51.060;17.226;2023-07-22T01:00:12;101057.80;;;16.79;96.94
44872;BME280;30602;51.060;17.226;2023-07-22T01:04:06;101058.72;;;16.51;97.95
44872;BME280;30602;51.060;17.226;2023-07-22T01:07:33;101049.48;;;16.29;98.61
44872;BME280;30602;51.060;17.226;2023-07-22T01:11:18;101049.87;;;16.24;98.60
44872;BME280;30602;51.060;17.226;2023-07-22T01:15:50;101049.53;;;16.19;99.35
44872;BME280;30602;51.060;17.226;2023-07-22T01:19:19;101045.70;;;16.32;98.46
44872;BME280;30602;51.060;17.226;2023-07-22T01:23:07;101045.04;;;16.33;97.44
44872;BME280;30602;51.060;17.226;2023-07-22T01:26:54;101038.50;;;16.51;96.00
44872;BME280;30602;51.060;17.226;2023-07-22T01:30:39;101049.96;;;16.47;96.21
44872;BME280;30602;51.060;17.226;2023-07-22T01:34:03;101050.17;;;16.32;97.84
44872;BME280;30602;51.060;17.226;2023-07-22T01:38:18;101057.41;;;16.46;97.78
44872;BME280;30602;51.060;17.226;2023-07-22T01:42:00;101063.62;;;16.18;98.10
44872;BME280;30602;51.060;17.226;2023-07-22T01:45:50;101068.01;;;16.10;99.83
44872;BME280;30602;51.060;17.226;2023-07-22T01:49:36;101067.79;;;16.08;99.86
44872;BME280;30602;51.060;17.226;2023-07-22T01:53:56;101069.98;;;15.96;100.00
44872;BME280;30602;51.060;17.226;2023-07-22T01:57:41;101076.82;;;16.04;100.00
44872;BME280;30602;51.060;17.226;2023-07-22T02:01:33;101082.26;;;16.07;100.00
44872;BME280;30602;51.060;17.226;2023-07-22T02:05:21;101090.78;;;16.02;100.00
44872;BME280;30602;51.060;17.226;2023-07-22T02:08:49;101091.67;;;16.05;100.00
44872;BME280;30602;51.060;17.226;2023-07-22T02:12:16;101095.55;;;15.99;99.98
44872;BME280;30602;51.060;17.226;2023-07-22T02:16:03;101102.97;;;15.95;100.00
44872;BME280;30602;51.060;17.226;2023-07-22T02:19:30;101107.21;;;15.90;99.36
44872;BME280;30602;51.060;17.226;2023-07-22T02:23:06;101108.29;;;15.84;99.86
44872;BME280;30602;51.060;17.226;2023-07-22T02:30:50;101101.90;;;15.77;100.00
44872;BME280;30602;51.060;17.226;2023-07-22T02:34:15;101112.02;;;15.91;99.05
44872;BME280;30602;51.060;17.226;2023-07-22T02:38:44;101111.28;;;15.90;99.21
44872;BME280;30602;51.060;17.226;2023-07-22T02:42:33;101098.49;;;15.70;98.72
44872;BME280;30602;51.060;17.226;2023-07-22T02:46:35;101116.91;;;15.90;99.32
44872;BME280;30602;51.060;17.226;2023-07-22T02:50:08;101116.04;;;15.99;98.43
44872;BME280;30602;51.060;17.226;2023-07-22T02:54:25;101111.73;;;15.88;97.65
44872;BME280;30602;51.060;17.226;2023-07-22T02:57:51;101112.88;;;15.68;99.73
44872;BME280;30602;51.060;17.226;2023-07-22T03:01:18;101122.42;;;15.57;100.00
44872;BME280;30602;51.060;17.226;2023-07-22T03:05:06;101132.21;;;15.51;100.00
44872;BME280;30602;51.060;17.226;2023-07-22T03:08:37;101130.31;;;15.64;100.00
44872;BME280;30602;51.060;17.226;2023-07-22T03:12:16;101129.80;;;15.77;100.00
44872;BME280;30602;51.060;17.226;2023-07-22T03:16:14;101139.05;;;15.96;100.00
44872;BME280;30602;51.060;17.226;2023-07-22T03:20:18;101142.98;;;16.22;100.00
44872;BME280;30602;51.060;17.226;2023-07-22T03:24:05;101143.27;;;16.14;100.00
44872;BME280;30602;51.060;17.226;2023-07-22T03:27:33;101144.70;;;16.11;100.00
44872;BME280;30602;51.060;17.226;2023-07-22T03:31:04;101146.38;;;16.01;100.00
44872;BME280;30602;51.060;17.226;2023-07-22T03:34:47;101154.13;;;15.81;100.00
44872;BME280;30602;51.060;17.226;2023-07-22T03:38:35;101154.87;;;15.90;100.00
44872;BME280;30602;51.060;17.226;2023-07-22T03:42:23;101157.76;;;16.14;100.00
44872;BME280;30602;51.060;17.226;2023-07-22T03:46:00;101160.13;;;16.03;100.00
44872;BME280;30602;51.060;17.226;2023-07-22T03:49:38;101159.55;;;16.16;100.00
44872;BME280;30602;51.060;17.226;2023-07-22T03:53:38;101160.59;;;16.24;100.00
44872;BME280;30602;51.060;17.226;2023-07-22T03:57:14;101160.27;;;16.09;99.98
44872;BME280;30602;51.060;17.226;2023-07-22T04:01:12;101164.02;;;16.06;100.00
44872;BME280;30602;51.060;17.226;2023-07-22T04:04:54;101157.28;;;16.07;100.00
44872;BME280;30602;51.060;17.226;2023-07-22T04:08:43;101170.18;;;15.97;100.00
44872;BME280;30602;51.060;17.226;2023-07-22T04:12:10;101175.39;;;16.01;100.00
44872;BME280;30602;51.060;17.226;2023-07-22T04:16:23;101178.91;;;16.10;100.00
44872;BME280;30602;51.060;17.226;2023-07-22T04:19:53;101182.22;;;15.99;100.00
44872;BME280;30602;51.060;17.226;2023-07-22T04:23:41;101176.77;;;16.06;100.00
44872;BME280;30602;51.060;17.226;2023-07-22T04:27:20;101183.36;;;16.18;100.00
44872;BME280;30602;51.060;17.226;2023-07-22T04:31:06;101188.41;;;16.18;99.85
44872;BME280;30602;51.060;17.226;2023-07-22T04:34:53;101188.62;;;16.15;99.54
44872;BME280;30602;51.060;17.226;2023-07-22T04:38:34;101192.83;;;16.22;99.54
44872;BME280;30602;51.060;17.226;2023-07-22T04:41:59;101192.59;;;16.40;97.85
44872;BME280;30602;51.060;17.226;2023-07-22T04:45:26;101192.73;;;16.61;97.74
44872;BME280;30602;51.060;17.226;2023-07-22T04:49:17;101194.95;;;16.93;95.66
44872;BME280;30602;51.060;17.226;2023-07-22T04:53:26;101199.19;;;17.00;94.78
44872;BME280;30602;51.060;17.226;2023-07-22T04:57:25;101195.32;;;17.09;92.80
44872;BME280;30602;51.060;17.226;2023-07-22T05:00:53;101201.80;;;17.03;92.28
44872;BME280;30602;51.060;17.226;2023-07-22T05:04:28;101201.88;;;16.98;92.92
44872;BME280;30602;51.060;17.226;2023-07-22T05:08:30;101207.61;;;17.02;92.87
44872;BME280;30602;51.060;17.226;2023-07-22T05:12:08;101197.62;;;17.04;92.48
44872;BME280;30602;51.060;17.226;2023-07-22T05:15:57;101206.80;;;17.19;92.53
44872;BME280;30602;51.060;17.226;2023-07-22T05:19:58;101210.70;;;17.25;90.53
44872;BME280;30602;51.060;17.226;2023-07-22T05:23:23;101215.79;;;17.40;88.48
44872;BME280;30602;51.060;17.226;2023-07-22T05:27:07;101221.05;;;17.45;87.79
44872;BME280;30602;51.060;17.226;2023-07-22T05:30:56;101222.89;;;17.34;87.84
44872;BME280;30602;51.060;17.226;2023-07-22T05:34:47;101234.05;;;17.26;88.84
44872;BME280;30602;51.060;17.226;2023-07-22T05:38:47;101234.64;;;17.37;87.56
44872;BME280;30602;51.060;17.226;2023-07-22T05:42:17;101242.94;;;17.48;88.06
44872;BME280;30602;51.060;17.226;2023-07-22T05:46:41;101245.08;;;17.50;86.48
44872;BME280;30602;51.060;17.226;2023-07-22T05:50:28;101243.47;;;17.63;84.99
44872;BME280;30602;51.060;17.226;2023-07-22T05:54:40;101245.30;;;17.70;85.23
44872;BME280;30602;51.060;17.226;2023-07-22T05:58:17;101246.34;;;17.89;83.13
44872;BME280;30602;51.060;17.226;2023-07-22T06:02:12;101245.23;;;17.79;83.29
44872;BME280;30602;51.060;17.226;2023-07-22T06:05:40;101241.62;;;17.75;83.49
44872;BME280;30602;51.060;17.226;2023-07-22T06:09:14;101243.87;;;17.89;84.33
44872;BME280;30602;51.060;17.226;2023-07-22T06:12:50;101245.93;;;17.87;82.20
44872;BME280;30602;51.060;17.226;2023-07-22T06:16:45;101257.37;;;18.12;81.09
44872;BME280;30602;51.060;17.226;2023-07-22T06:20:45;101255.08;;;18.14;80.10
44872;BME280;30602;51.060;17.226;2023-07-22T06:25:09;101250.54;;;18.41;80.00
44872;BME280;30602;51.060;17.226;2023-07-22T06:29:13;101252.21;;;18.59;77.89
44872;BME280;30602;51.060;17.226;2023-07-22T06:33:07;101253.99;;;18.47;77.11
44872;BME280;30602;51.060;17.226;2023-07-22T06:36:39;101256.56;;;18.53;77.93
44872;BME280;30602;51.060;17.226;2023-07-22T06:40:41;101262.92;;;18.52;77.23
44872;BME280;30602;51.060;17.226;2023-07-22T06:44:08;101262.37;;;18.59;76.67
44872;BME280;30602;51.060;17.226;2023-07-22T06:47:35;101263.16;;;18.70;76.75
44872;BME280;30602;51.060;17.226;2023-07-22T06:51:00;101269.27;;;18.74;74.30
44872;BME280;30602;51.060;17.226;2023-07-22T06:54:23;101269.77;;;18.80;75.03
44872;BME280;30602;51.060;17.226;2023-07-22T06:58:12;101268.34;;;18.71;74.54
44872;BME280;30602;51.060;17.226;2023-07-22T07:02:09;101279.64;;;18.89;73.96
44872;BME280;30602;51.060;17.226;2023-07-22T07:06:04;101278.36;;;18.94;73.23
44872;BME280;30602;51.060;17.226;2023-07-22T07:09:54;101289.59;;;19.16;73.31
44872;BME280;30602;51.060;17.226;2023-07-22T07:13:59;101292.02;;;19.18;71.58
44872;BME280;30602;51.060;17.226;2023-07-22T07:17:46;101295.77;;;19.45;70.33
44872;BME280;30602;51.060;17.226;2023-07-22T07:21:36;101293.56;;;19.57;70.98
44872;BME280;30602;51.060;17.226;2023-07-22T07:25:38;101297.48;;;19.62;71.10
44872;BME280;30602;51.060;17.226;2023-07-22T07:29:03;101313.05;;;19.49;68.61
44872;BME280;30602;51.060;17.226;2023-07-22T07:32:32;101307.71;;;19.23;69.81
44872;BME280;30602;51.060;17.226;2023-07-22T07:35:58;101319.59;;;19.39;69.74
44872;BME280;30602;51.060;17.226;2023-07-22T07:39:35;101324.92;;;19.19;69.80
44872;BME280;30602;51.060;17.226;2023-07-22T07:43:18;101320.54;;;19.23;70.30
44872;BME280;30602;51.060;17.226;2023-07-22T07:47:05;101320.02;;;19.44;70.85
44872;BME280;30602;51.060;17.226;2023-07-22T07:50:25;101326.26;;;19.85;70.15
44872;BME280;30602;51.060;17.226;2023-07-22T07:54:24;101321.80;;;19.98;67.25
44872;BME280;30602;51.060;17.226;2023-07-22T07:57:52;101321.38;;;20.06;64.89
44872;BME280;30602;51.060;17.226;2023-07-22T08:01:37;101325.70;;;20.17;66.16
44872;BME280;30602;51.060;17.226;2023-07-22T08:05:03;101322.94;;;20.14;64.88
44872;BME280;30602;51.060;17.226;2023-07-22T08:08:39;101323.38;;;20.15;66.24
44872;BME280;30602;51.060;17.226;2023-07-22T08:12:23;101326.55;;;20.36;66.23
44872;BME280;30602;51.060;17.226;2023-07-22T08:16:28;101326.44;;;20.71;65.12
44872;BME280;30602;51.060;17.226;2023-07-22T08:20:03;101321.51;;;20.33;63.12
44872;BME280;30602;51.060;17.226;2023-07-22T08:23:48;101335.41;;;20.45;62.04
44872;BME280;30602;51.060;17.226;2023-07-22T08:27:26;101343.59;;;20.32;62.19
44872;BME280;30602;51.060;17.226;2023-07-22T08:31:31;101332.89;;;20.22;63.41
44872;BME280;30602;51.060;17.226;2023-07-22T08:35:13;101347.86;;;20.39;62.29
44872;BME280;30602;51.060;17.226;2023-07-22T08:39:09;101353.38;;;20.15;60.79
44872;BME280;30602;51.060;17.226;2023-07-22T08:43:11;101350.55;;;20.22;61.31
44872;BME280;30602;51.060;17.226;2023-07-22T08:47:16;101349.04;;;20.36;60.64
44872;BME280;30602;51.060;17.226;2023-07-22T08:51:12;101351.09;;;20.59;61.54
44872;BME280;30602;51.060;17.226;2023-07-22T08:55:03;101344.94;;;21.04;60.83
44872;BME280;30602;51.060;17.226;2023-07-22T08:58:52;101350.91;;;21.07;59.59
44872;BME280;30602;51.060;17.226;2023-07-22T09:02:34;101349.32;;;21.23;60.67
44872;BME280;30602;51.060;17.226;2023-07-22T09:06:05;101349.08;;;21.29;58.02
44872;BME280;30602;51.060;17.226;2023-07-22T09:09:44;101349.92;;;21.08;56.18
44872;BME280;30602;51.060;17.226;2023-07-22T09:13:57;101354.52;;;20.94;55.75
44872;BME280;30602;51.060;17.226;2023-07-22T09:17:58;101356.98;;;21.08;56.29
44872;BME280;30602;51.060;17.226;2023-07-22T09:21:47;101355.21;;;21.17;55.20
44872;BME280;30602;51.060;17.226;2023-07-22T09:26:12;101358.98;;;21.42;57.30
44872;BME280;30602;51.060;17.226;2023-07-22T09:34:16;101363.15;;;20.75;55.80
44872;BME280;30602;51.060;17.226;2023-07-22T09:38:43;101371.74;;;20.56;54.81
44872;BME280;30602;51.060;17.226;2023-07-22T09:43:01;101365.26;;;20.37;55.32
44872;BME280;30602;51.060;17.226;2023-07-22T09:46:31;101363.71;;;20.77;55.98
44872;BME280;30602;51.060;17.226;2023-07-22T09:50:25;101360.02;;;21.24;55.70
44872;BME280;30602;51.060;17.226;2023-07-22T09:54:12;101363.45;;;20.78;52.97
44872;BME280;30602;51.060;17.226;2023-07-22T09:57:51;101355.91;;;20.94;54.90
44872;BME280;30602;51.060;17.226;2023-07-22T10:01:19;101356.95;;;21.40;55.83
44872;BME280;30602;51.060;17.226;2023-07-22T10:05:21;101360.22;;;21.64;53.38
44872;BME280;30602;51.060;17.226;2023-07-22T10:09:27;101371.14;;;21.73;50.44
44872;BME280;30602;51.060;17.226;2023-07-22T10:13:33;101354.95;;;21.25;51.07
44872;BME280;30602;51.060;17.226;2023-07-22T10:17:28;101367.29;;;21.59;54.11
44872;BME280;30602;51.060;17.226;2023-07-22T10:20:58;101368.99;;;21.60;50.74
44872;BME280;30602;51.060;17.226;2023-07-22T10:24:46;101354.82;;;21.81;52.67
44872;BME280;30602;51.060;17.226;2023-07-22T10:28:51;101362.24;;;22.02;50.58
44872;BME280;30602;51.060;17.226;2023-07-22T10:33:00;101370.30;;;22.12;50.04
44872;BME280;30602;51.060;17.226;2023-07-22T10:36:31;101358.37;;;21.54;50.04
44872;BME280;30602;51.060;17.226;2023-07-22T10:44:37;101364.94;;;21.99;49.03
44872;BME280;30602;51.060;17.226;2023-07-22T10:48:34;101361.38;;;22.13;48.15
44872;BME280;30602;51.060;17.226;2023-07-22T10:56:20;101369.44;;;21.98;47.13
44872;BME280;30602;51.060;17.226;2023-07-22T11:00:35;101373.17;;;21.82;49.48
44872;BME280;30602;51.060;17.226;2023-07-22T11:04:14;101375.36;;;21.82;48.91
44872;BME280;30602;51.060;17.226;2023-07-22T11:08:04;101377.82;;;21.73;47.84
44872;BME280;30602;51.060;17.226;2023-07-22T11:12:18;101374.69;;;21.80;47.62
44872;BME280;30602;51.060;17.226;2023-07-22T11:16:14;101375.47;;;22.13;45.87
44872;BME280;30602;51.060;17.226;2023-07-22T11:20:07;101366.80;;;22.32;47.30
44872;BME280;30602;51.060;17.226;2023-07-22T11:23:38;101362.95;;;22.56;46.96
44872;BME280;30602;51.060;17.226;2023-07-22T11:27:08;101359.62;;;22.52;44.03
44872;BME280;30602;51.060;17.226;2023-07-22T11:30:54;101363.09;;;22.72;43.37
44872;BME280;30602;51.060;17.226;2023-07-22T11:34:26;101355.54;;;22.84;43.77
44872;BME280;30602;51.060;17.226;2023-07-22T11:41:32;101355.16;;;22.64;42.95
44872;BME280;30602;51.060;17.226;2023-07-22T11:45:45;101358.30;;;22.38;43.75
44872;BME280;30602;51.060;17.226;2023-07-22T11:50:08;101356.77;;;22.38;43.69
44872;BME280;30602;51.060;17.226;2023-07-22T11:54:22;101357.22;;;22.37;44.42
44872;BME280;30602;51.060;17.226;2023-07-22T11:58:12;101359.14;;;22.25;43.11
44872;BME280;30602;51.060;17.226;2023-07-22T12:01:46;101355.02;;;22.30;42.86
44872;BME280;30602;51.060;17.226;2023-07-22T12:05:20;101357.46;;;22.48;42.87
44872;BME280;30602;51.060;17.226;2023-07-22T12:09:22;101354.70;;;22.46;43.14
44872;BME280;30602;51.060;17.226;2023-07-22T12:13:00;101361.55;;;22.32;43.04
44872;BME280;30602;51.060;17.226;2023-07-22T12:17:25;101356.55;;;22.41;42.28
44872;BME280;30602;51.060;17.226;2023-07-22T12:20:48;101354.37;;;22.42;42.47
44872;BME280;30602;51.060;17.226;2023-07-22T12:24:19;101354.79;;;22.57;43.15
44872;BME280;30602;51.060;17.226;2023-07-22T12:28:03;101353.84;;;22.88;43.44
44872;BME280;30602;51.060;17.226;2023-07-22T12:32:01;101350.20;;;23.06;41.71
44872;BME280;30602;51.060;17.226;2023-07-22T12:35:33;101353.09;;;23.09;43.32
44872;BME280;30602;51.060;17.226;2023-07-22T12:39:06;101354.68;;;22.89;42.06
44872;BME280;30602;51.060;17.226;2023-07-22T12:43:11;101350.89;;;22.74;41.60
44872;BME280;30602;51.060;17.226;2023-07-22T12:46:41;101346.16;;;22.73;42.83
44872;BME280;30602;51.060;17.226;2023-07-22T12:50:04;101348.77;;;22.48;40.49
44872;BME280;30602;51.060;17.226;2023-07-22T12:53:34;101346.79;;;22.73;40.84
44872;BME280;30602;51.060;17.226;2023-07-22T12:56:56;101332.73;;;23.10;42.43
44872;BME280;30602;51.060;17.226;2023-07-22T13:00:42;101327.10;;;23.48;42.15
44872;BME280;30602;51.060;17.226;2023-07-22T13:04:28;101333.22;;;23.39;38.29
44872;BME280;30602;51.060;17.226;2023-07-22T13:07:53;101327.78;;;23.34;37.88
44872;BME280;30602;51.060;17.226;2023-07-22T13:11:20;101324.26;;;23.49;39.35
44872;BME280;30602;51.060;17.226;2023-07-22T13:15:03;101322.14;;;23.42;39.11
44872;BME280;30602;51.060;17.226;2023-07-22T13:19:33;101318.44;;;23.47;39.67
44872;BME280;30602;51.060;17.226;2023-07-22T13:23:19;101326.27;;;23.45;36.83
44872;BME280;30602;51.060;17.226;2023-07-22T13:26:50;101315.04;;;23.74;38.21
44872;BME280;30602;51.060;17.226;2023-07-22T13:30:17;101327.01;;;24.10;38.96
44872;BME280;30602;51.060;17.226;2023-07-22T13:33:53;101316.42;;;23.73;38.54
44872;BME280;30602;51.060;17.226;2023-07-22T13:37:28;101323.74;;;23.48;38.44
44872;BME280;30602;51.060;17.226;2023-07-22T13:41:19;101323.80;;;23.15;38.54
44872;BME280;30602;51.060;17.226;2023-07-22T13:45:08;101320.41;;;23.12;40.97
44872;BME280;30602;51.060;17.226;2023-07-22T13:48:59;101308.55;;;23.10;38.33
44872;BME280;30602;51.060;17.226;2023-07-22T13:52:43;101303.73;;;23.51;38.29
44872;BME280;30602;51.060;17.226;2023-07-22T13:56:14;101315.76;;;23.64;38.93
44872;BME280;30602;51.060;17.226;2023-07-22T13:59:52;101321.75;;;23.34;36.48
44872;BME280;30602;51.060;17.226;2023-07-22T14:03:25;101316.59;;;23.18;36.94
44872;BME280;30602;51.060;17.226;2023-07-22T14:07:21;101315.72;;;23.19;36.81
44872;BME280;30602;51.060;17.226;2023-07-22T14:11:09;101318.25;;;23.04;36.84
44872;BME280;30602;51.060;17.226;2023-07-22T14:14:54;101312.75;;;23.07;36.32
44872;BME280;30602;51.060;17.226;2023-07-22T14:18:54;101314.08;;;23.12;36.35
44872;BME280;30602;51.060;17.226;2023-07-22T14:22:41;101310.26;;;23.37;35.22
44872;BME280;30602;51.060;17.226;2023-07-22T14:26:31;101313.05;;;23.17;35.59
44872;BME280;30602;51.060;17.226;2023-07-22T14:34:16;101312.78;;;23.00;37.01
44872;BME280;30602;51.060;17.226;2023-07-22T14:37:55;101305.11;;;23.31;36.62
44872;BME280;30602;51.060;17.226;2023-07-22T14:41:42;101296.91;;;23.74;37.82
44872;BME280;30602;51.060;17.226;2023-07-22T14:45:25;101298.29;;;23.51;36.59
44872;BME280;30602;51.060;17.226;2023-07-22T14:49:06;101299.03;;;23.67;36.44
44872;BME280;30602;51.060;17.226;2023-07-22T14:52:58;101304.01;;;23.56;36.63
44872;BME280;30602;51.060;17.226;2023-07-22T14:56:56;101302.48;;;23.68;37.33
44872;BME280;30602;51.060;17.226;2023-07-22T15:00:37;101298.62;;;23.76;35.48
44872;BME280;30602;51.060;17.226;2023-07-22T15:04:32;101294.59;;;23.56;37.60
44872;BME280;30602;51.060;17.226;2023-07-22T15:08:42;101294.32;;;23.57;36.42
44872;BME280;30602;51.060;17.226;2023-07-22T15:12:30;101299.84;;;23.86;34.65
44872;BME280;30602;51.060;17.226;2023-07-22T15:15:59;101279.74;;;23.71;35.08
44872;BME280;30602;51.060;17.226;2023-07-22T15:19:45;101299.54;;;23.64;35.48
44872;BME280;30602;51.060;17.226;2023-07-22T15:25:04;101294.78;;;23.45;37.66
44872;BME280;30602;51.060;17.226;2023-07-22T15:28:33;101293.74;;;23.61;37.88
44872;BME280;30602;51.060;17.226;2023-07-22T15:32:52;101294.91;;;23.78;36.53
44872;BME280;30602;51.060;17.226;2023-07-22T15:36:42;101293.41;;;23.58;36.02
44872;BME280;30602;51.060;17.226;2023-07-22T15:44:30;101287.35;;;23.46;36.33
44872;BME280;30602;51.060;17.226;2023-07-22T15:48:12;101287.95;;;23.43;35.77
44872;BME280;30602;51.060;17.226;2023-07-22T15:52:12;101290.64;;;23.36;35.45
44872;BME280;30602;51.060;17.226;2023-07-22T15:55:43;101289.52;;;23.31;35.11
44872;BME280;30602;51.060;17.226;2023-07-22T15:59:32;101288.34;;;23.39;36.00
44872;BME280;30602;51.060;17.226;2023-07-22T16:02:57;101283.81;;;23.60;34.47
44872;BME280;30602;51.060;17.226;2023-07-22T16:06:19;101277.84;;;23.82;33.78
44872;BME280;30602;51.060;17.226;2023-07-22T16:10:01;101282.65;;;23.87;33.98
44872;BME280;30602;51.060;17.226;2023-07-22T16:13:30;101286.29;;;23.67;34.96
44872;BME280;30602;51.060;17.226;2023-07-22T16:17:27;101286.79;;;23.45;35.07
44872;BME280;30602;51.060;17.226;2023-07-22T16:21:23;101291.64;;;23.29;35.64
44872;BME280;30602;51.060;17.226;2023-07-22T16:25:17;101291.56;;;23.28;37.76
44872;BME280;30602;51.060;17.226;2023-07-22T16:28:49;101287.63;;;23.62;36.71
44872;BME280;30602;51.060;17.226;2023-07-22T16:32:33;101294.46;;;23.46;34.89
44872;BME280;30602;51.060;17.226;2023-07-22T16:35:57;101290.47;;;23.50;34.91
44872;BME280;30602;51.060;17.226;2023-07-22T16:39:24;101287.55;;;23.61;34.73
44872;BME280;30602;51.060;17.226;2023-07-22T16:42:47;101283.38;;;23.75;35.18
44872;BME280;30602;51.060;17.226;2023-07-22T16:46:58;101284.14;;;24.01;36.60
44872;BME280;30602;51.060;17.226;2023-07-22T16:51:06;101282.06;;;24.23;34.35
44872;BME280;30602;51.060;17.226;2023-07-22T16:54:43;101273.91;;;24.88;33.71
44872;BME280;30602;51.060;17.226;2023-07-22T16:59:07;101275.88;;;24.98;31.44
44872;BME280;30602;51.060;17.226;2023-07-22T17:03:00;101272.60;;;25.37;31.65
44872;BME280;30602;51.060;17.226;2023-07-22T17:06:42;101276.25;;;25.37;31.45
44872;BME280;30602;51.060;17.226;2023-07-22T17:10:09;101270.12;;;25.69;32.02
44872;BME280;30602;51.060;17.226;2023-07-22T17:14:07;101265.62;;;25.78;31.29
44872;BME280;30602;51.060;17.226;2023-07-22T17:17:50;101267.54;;;25.39;30.94
44872;BME280;30602;51.060;17.226;2023-07-22T17:21:20;101268.54;;;25.17;31.24
44872;BME280;30602;51.060;17.226;2023-07-22T17:29:04;101274.09;;;25.04;31.09
44872;BME280;30602;51.060;17.226;2023-07-22T17:33:02;101279.23;;;24.85;32.21
44872;BME280;30602;51.060;17.226;2023-07-22T17:36:46;101278.82;;;24.72;32.40
44872;BME280;30602;51.060;17.226;2023-07-22T17:41:01;101272.13;;;24.20;32.93
44872;BME280;30602;51.060;17.226;2023-07-22T17:45:07;101277.89;;;23.92;33.31
44872;BME280;30602;51.060;17.226;2023-07-22T17:48:56;101289.43;;;23.69;34.04
44872;BME280;30602;51.060;17.226;2023-07-22T17:52:42;101287.84;;;23.46;34.30
44872;BME280;30602;51.060;17.226;2023-07-22T17:56:18;101297.59;;;23.34;35.11
44872;BME280;30602;51.060;17.226;2023-07-22T18:00:16;101300.59;;;22.90;39.73
44872;BME280;30602;51.060;17.226;2023-07-22T18:03:44;101299.87;;;22.57;42.92
44872;BME280;30602;51.060;17.226;2023-07-22T18:07:34;101298.83;;;22.18;42.10
44872;BME280;30602;51.060;17.226;2023-07-22T18:11:57;101304.07;;;21.87;45.08
44872;BME280;30602;51.060;17.226;2023-07-22T18:15:26;101309.19;;;21.47;46.83
44872;BME280;30602;51.060;17.226;2023-07-22T18:18:50;101308.82;;;21.22;49.98
44872;BME280;30602;51.060;17.226;2023-07-22T18:22:35;101307.73;;;20.98;50.96
44872;BME280;30602;51.060;17.226;2023-07-22T18:26:25;101308.23;;;20.76;55.32
44872;BME280;30602;51.060;17.226;2023-07-22T18:29:51;101317.70;;;20.43;55.65
44872;BME280;30602;51.060;17.226;2023-07-22T18:33:33;101320.63;;;20.19;56.94
44872;BME280;30602;51.060;17.226;2023-07-22T18:37:18;101317.75;;;19.89;58.79
44872;BME280;30602;51.060;17.226;2023-07-22T18:41:04;101322.45;;;19.56;59.75
44872;BME280;30602;51.060;17.226;2023-07-22T18:44:47;101328.55;;;19.31;59.84
44872;BME280;30602;51.060;17.226;2023-07-22T18:48:28;101327.62;;;19.19;61.62
44872;BME280;30602;51.060;17.226;2023-07-22T18:55:45;101326.90;;;18.58;63.23
44872;BME280;30602;51.060;17.226;2023-07-22T18:59:23;101331.67;;;18.31;63.35
44872;BME280;30602;51.060;17.226;2023-07-22T19:03:33;101338.05;;;18.05;65.06
44872;BME280;30602;51.060;17.226;2023-07-22T19:06:59;101344.99;;;17.98;65.77
44872;BME280;30602;51.060;17.226;2023-07-22T19:10:55;101341.12;;;17.82;67.24
44872;BME280;30602;51.060;17.226;2023-07-22T19:14:24;101357.21;;;17.53;68.81
44872;BME280;30602;51.060;17.226;2023-07-22T19:18:02;101358.23;;;17.39;71.43
44872;BME280;30602;51.060;17.226;2023-07-22T19:25:49;101364.85;;;16.71;72.06
44872;BME280;30602;51.060;17.226;2023-07-22T19:29:46;101366.70;;;16.65;72.98
44872;BME280;30602;51.060;17.226;2023-07-22T19:33:13;101362.37;;;16.54;73.48
44872;BME280;30602;51.060;17.226;2023-07-22T19:37:00;101371.40;;;16.55;76.49
44872;BME280;30602;51.060;17.226;2023-07-22T19:44:28;101378.67;;;16.27;78.78
44872;BME280;30602;51.060;17.226;2023-07-22T19:48:26;101379.26;;;15.97;78.35
44872;BME280;30602;51.060;17.226;2023-07-22T19:56:12;101382.24;;;15.91;78.85
44872;BME280;30602;51.060;17.226;2023-07-22T20:00:08;101387.38;;;15.99;79.56
44872;BME280;30602;51.060;17.226;2023-07-22T20:03:53;101390.90;;;15.80;80.56
44872;BME280;30602;51.060;17.226;2023-07-22T20:07:18;101399.13;;;15.56;81.25
44872;BME280;30602;51.060;17.226;2023-07-22T20:10:37;101399.45;;;15.40;82.62
44872;BME280;30602;51.060;17.226;2023-07-22T20:14:21;101394.78;;;15.19;83.44
44872;BME280;30602;51.060;17.226;2023-07-22T20:18:07;101395.32;;;15.25;84.38